createdAt,value
2018-03-22T00:02:12.617Z,3.10
2018-03-22T00:04:39.234Z,3.03
2018-03-22T00:07:05.693Z,2.80
2018-03-22T00:09:31.894Z,3.87
2018-03-22T00:11:58.882Z,3.37
2018-03-22T00:14:25.178Z,3.33
2018-03-22T00:16:52.151Z,3.20
2018-03-22T00:19:18.619Z,3.00
2018-03-22T00:21:44.827Z,3.13
2018-03-22T00:24:11.076Z,3.87
2018-03-22T00:26:37.249Z,2.43
2018-03-22T00:29:03.500Z,2.70
2018-03-22T00:31:29.679Z,2.80
2018-03-22T00:33:56.809Z,3.53
2018-03-22T00:36:23.083Z,2.87
2018-03-22T00:38:49.447Z,2.90
2018-03-22T00:41:15.987Z,2.80
2018-03-22T00:43:43.755Z,3.40
2018-03-22T00:46:09.971Z,2.37
2018-03-22T00:48:36.154Z,2.77
2018-03-22T00:51:02.413Z,3.90
2018-03-22T00:53:28.631Z,2.73
2018-03-22T00:55:54.983Z,3.40
2018-03-22T00:58:21.256Z,3.43
2018-03-22T01:00:47.452Z,2.73
2018-03-22T01:03:15.193Z,3.07
2018-03-22T01:05:41.462Z,3.00
2018-03-22T01:08:08.535Z,3.77
2018-03-22T01:10:34.685Z,3.00
2018-03-22T01:13:00.891Z,3.13
2018-03-22T01:15:27.189Z,3.00
2018-03-22T01:17:54.251Z,3.10
2018-03-22T01:20:20.475Z,3.00
2018-03-22T01:22:46.758Z,3.83
2018-03-22T01:25:13.896Z,4.20
2018-03-22T01:27:40.220Z,4.70
2018-03-22T01:30:18.743Z,4.63
2018-03-22T01:32:45.721Z,4.63
2018-03-22T01:35:12.728Z,5.30
2018-03-22T01:37:38.911Z,5.97
2018-03-22T01:40:05.254Z,4.17
2018-03-22T01:42:31.466Z,4.37
2018-03-22T01:44:57.648Z,5.03
2018-03-22T01:47:24.652Z,5.47
2018-03-22T01:49:50.879Z,6.13
2018-03-22T01:52:17.235Z,6.80
2018-03-22T01:54:43.615Z,5.97
2018-03-22T01:57:09.803Z,4.87
2018-03-22T01:59:36.806Z,5.10
2018-03-22T02:02:03.179Z,5.20
2018-03-22T02:04:29.405Z,5.30
2018-03-22T02:06:57.275Z,5.60
2018-03-22T02:09:24.331Z,6.63
2018-03-22T02:11:51.321Z,5.90
2018-03-22T02:14:17.580Z,6.20
2018-03-22T02:16:43.971Z,6.40
2018-03-22T02:19:10.204Z,7.47
2018-03-22T02:21:36.397Z,6.40
2018-03-22T02:24:03.553Z,6.87
2018-03-22T02:26:29.791Z,7.30
2018-03-22T02:28:56.086Z,7.27
2018-03-22T02:31:23.012Z,7.33
2018-03-22T02:33:49.402Z,6.90
2018-03-22T02:36:15.677Z,8.03
2018-03-22T02:38:42.641Z,7.47
2018-03-22T02:41:09.745Z,8.47
2018-03-22T02:43:42.935Z,8.10
2018-03-22T02:46:09.202Z,8.57
2018-03-22T02:48:36.326Z,7.47
2018-03-22T02:51:02.736Z,8.17
2018-03-22T02:53:28.951Z,7.93
2018-03-22T02:55:55.164Z,8.17
2018-03-22T02:58:21.468Z,7.90
2018-03-22T03:00:48.392Z,9.13
2018-03-22T03:03:15.380Z,9.37
2018-03-22T03:05:41.806Z,8.17
2018-03-22T03:08:08.232Z,7.47
2018-03-22T03:10:34.500Z,8.47
2018-03-22T03:13:00.779Z,8.50
2018-03-22T03:15:27.140Z,7.43
2018-03-22T03:17:53.427Z,8.40
2018-03-22T03:20:20.351Z,7.40
2018-03-22T03:22:47.368Z,7.20
2018-03-22T03:25:13.692Z,8.53
2018-03-22T03:27:39.923Z,7.67
2018-03-22T03:30:06.146Z,8.70
2018-03-22T03:32:32.372Z,6.77
2018-03-22T03:34:58.733Z,7.20
2018-03-22T03:37:25.768Z,7.37
2018-03-22T03:39:52.011Z,6.90
2018-03-22T03:42:19.167Z,7.40
2018-03-22T03:44:46.134Z,6.50
2018-03-22T03:47:12.518Z,6.73
2018-03-22T03:49:38.776Z,6.40
2018-03-22T03:52:05.770Z,6.33
2018-03-22T03:54:32.102Z,6.77
2018-03-22T03:56:58.364Z,5.90
2018-03-22T04:02:18.412Z,6.43
2018-03-22T04:04:44.713Z,6.07
2018-03-22T04:07:11.688Z,6.37
2018-03-22T04:09:37.959Z,6.23
2018-03-22T04:12:04.371Z,5.10
2018-03-22T04:14:30.700Z,5.43
2018-03-22T04:16:56.874Z,5.90
2018-03-22T04:19:23.284Z,5.60
2018-03-22T04:21:50.332Z,6.00
2018-03-22T04:24:17.337Z,6.57
2018-03-22T04:26:43.736Z,5.77
2018-03-22T04:29:10.207Z,5.90
2018-03-22T04:31:36.551Z,5.43
2018-03-22T04:34:02.889Z,5.90
2018-03-22T04:36:29.083Z,6.37
2018-03-22T04:38:55.360Z,6.17
2018-03-22T04:41:22.345Z,6.00
2018-03-22T04:43:48.504Z,6.67
2018-03-22T04:46:14.799Z,7.40
2018-03-22T04:48:41.086Z,6.10
2018-03-22T04:51:07.411Z,7.77
2018-03-22T04:53:34.382Z,8.40
2018-03-22T04:56:00.623Z,10.60
2018-03-22T04:58:26.869Z,11.67
2018-03-22T05:00:53.250Z,10.77
2018-03-22T05:03:19.546Z,10.97
2018-03-22T05:05:46.483Z,10.83
2018-03-22T05:08:12.859Z,11.20
2018-03-22T05:10:39.129Z,10.80
2018-03-22T05:13:05.390Z,10.70
2018-03-22T05:15:32.323Z,11.60
2018-03-22T05:17:59.361Z,9.80
2018-03-22T05:20:26.396Z,13.50
2018-03-22T05:22:52.715Z,13.07
2018-03-22T05:25:18.903Z,11.27
2018-03-22T05:27:45.114Z,12.40
2018-03-22T05:30:11.444Z,13.30
2018-03-22T05:32:38.648Z,12.40
2018-03-22T05:35:04.918Z,14.17
2018-03-22T05:37:31.942Z,13.57
2018-03-22T05:39:59.276Z,14.40
2018-03-22T05:42:25.507Z,15.17
2018-03-22T05:44:51.755Z,14.30
2018-03-22T05:47:18.831Z,14.23
2018-03-22T05:49:45.740Z,14.23
2018-03-22T05:52:12.073Z,14.80
2018-03-22T05:54:39.009Z,14.60
2018-03-22T05:57:06.182Z,14.73
2018-03-22T05:59:33.263Z,14.93
2018-03-22T06:01:59.932Z,13.67
2018-03-22T06:04:26.901Z,14.50
2018-03-22T06:06:53.917Z,14.33
2018-03-22T06:09:20.965Z,13.70
2018-03-22T06:11:48.147Z,13.27
2018-03-22T06:14:15.251Z,14.80
2018-03-22T06:16:41.464Z,14.13
2018-03-22T06:19:07.703Z,13.97
2018-03-22T06:21:34.761Z,15.00
2018-03-22T06:24:01.739Z,13.90
2018-03-22T06:26:27.940Z,14.80
2018-03-22T06:28:55.719Z,15.20
2018-03-22T06:31:22.877Z,15.50
2018-03-22T06:33:49.391Z,13.73
2018-03-22T06:36:15.801Z,15.77
2018-03-22T06:38:42.825Z,15.83
2018-03-22T06:41:09.154Z,15.70
2018-03-22T06:43:35.470Z,15.67
2018-03-22T06:46:01.705Z,15.47
2018-03-22T06:48:27.934Z,15.27
2018-03-22T06:50:54.263Z,14.57
2018-03-22T06:53:20.779Z,15.93
2018-03-22T06:55:47.174Z,16.30
2018-03-22T06:58:14.156Z,16.03
2018-03-22T07:00:40.324Z,16.03
2018-03-22T07:03:06.637Z,15.80
2018-03-22T07:05:32.975Z,14.07
2018-03-22T07:07:59.330Z,16.50
2018-03-22T07:10:26.370Z,16.60
2018-03-22T07:12:53.399Z,14.60
2018-03-22T07:15:21.150Z,15.90
2018-03-22T07:17:47.476Z,15.50
2018-03-22T07:20:13.692Z,14.63
2018-03-22T07:22:39.989Z,16.07
2018-03-22T07:25:06.202Z,15.30
2018-03-22T07:27:33.379Z,15.60
2018-03-22T07:29:59.654Z,15.20
2018-03-22T07:32:26.684Z,14.77
2018-03-22T07:34:52.927Z,16.67
2018-03-22T07:37:20.942Z,15.40
2018-03-22T07:39:47.164Z,16.10
2018-03-22T07:42:13.475Z,16.17
2018-03-22T07:44:40.544Z,17.00
2018-03-22T07:47:06.810Z,17.23
2018-03-22T07:49:33.012Z,16.67
2018-03-22T07:51:59.234Z,16.67
2018-03-22T07:54:25.602Z,16.70
2018-03-22T07:56:51.803Z,16.57
2018-03-22T07:59:18.188Z,17.00
2018-03-22T08:01:45.296Z,19.13
2018-03-22T08:04:11.881Z,17.73
2018-03-22T08:06:38.212Z,15.67
2018-03-22T08:09:04.403Z,18.67
2018-03-22T08:11:30.596Z,18.47
2018-03-22T08:13:56.907Z,18.30
2018-03-22T08:16:23.173Z,17.47
2018-03-22T08:18:49.426Z,16.90
2018-03-22T08:21:16.439Z,16.73
2018-03-22T08:23:42.803Z,16.03
2018-03-22T08:26:09.765Z,17.10
2018-03-22T08:28:36.109Z,15.73
2018-03-22T08:31:02.315Z,16.30
2018-03-22T08:33:28.546Z,16.63
2018-03-22T08:35:54.771Z,15.57
2018-03-22T08:38:20.975Z,15.57
2018-03-22T08:40:47.867Z,16.43
2018-03-22T08:43:14.770Z,16.37
2018-03-22T08:45:41.144Z,14.63
2018-03-22T08:48:07.458Z,18.03
2018-03-22T08:50:33.769Z,17.37
2018-03-22T08:53:00.245Z,16.40
2018-03-22T08:55:26.444Z,15.30
2018-03-22T08:57:53.043Z,15.97
2018-03-22T09:00:20.044Z,16.80
2018-03-22T09:02:46.357Z,15.23
2018-03-22T09:05:12.616Z,15.93
2018-03-22T09:07:38.921Z,14.23
2018-03-22T09:10:05.224Z,14.63
2018-03-22T09:12:31.484Z,15.60
2018-03-22T09:14:58.210Z,16.20
2018-03-22T09:17:24.507Z,15.33
2018-03-22T09:19:50.924Z,15.57
2018-03-22T09:22:17.155Z,14.90
2018-03-22T09:24:44.173Z,14.90
2018-03-22T09:27:10.597Z,15.33
2018-03-22T09:29:37.043Z,14.40
2018-03-22T09:32:04.033Z,15.20
2018-03-22T09:34:30.435Z,15.47
2018-03-22T09:36:56.736Z,14.43
2018-03-22T09:39:23.010Z,14.90
2018-03-22T09:41:49.426Z,14.30
2018-03-22T09:44:16.334Z,14.27
2018-03-22T09:46:42.851Z,13.83
2018-03-22T09:49:09.231Z,14.13
2018-03-22T09:51:37.186Z,14.93
2018-03-22T09:54:03.596Z,16.37
2018-03-22T09:56:29.867Z,14.70
2018-03-22T09:58:56.087Z,14.90
2018-03-22T10:01:23.152Z,15.30
2018-03-22T10:03:49.427Z,16.23
2018-03-22T10:06:15.920Z,15.07
2018-03-22T10:08:42.367Z,14.40
2018-03-22T10:11:08.734Z,14.80
2018-03-22T10:13:34.956Z,15.40
2018-03-22T10:16:02.814Z,15.17
2018-03-22T10:18:29.950Z,14.53
2018-03-22T10:20:56.234Z,14.70
2018-03-22T10:23:23.206Z,15.07
2018-03-22T10:25:49.462Z,14.93
2018-03-22T10:28:15.789Z,15.40
2018-03-22T10:30:41.949Z,14.93
2018-03-22T10:33:09.059Z,14.50
2018-03-22T10:35:36.468Z,15.40
2018-03-22T10:38:03.524Z,14.50
2018-03-22T10:40:29.991Z,14.50
2018-03-22T10:42:56.200Z,14.50
2018-03-22T10:45:22.545Z,14.60
2018-03-22T10:47:48.880Z,14.00
2018-03-22T10:50:15.203Z,14.13
2018-03-22T10:52:41.598Z,13.40
2018-03-22T10:55:07.900Z,13.63
2018-03-22T10:57:34.979Z,12.37
2018-03-22T11:00:01.271Z,12.83
2018-03-22T11:02:34.290Z,13.00
2018-03-22T11:05:00.679Z,14.10
2018-03-22T11:07:27.763Z,13.37
2018-03-22T11:09:54.133Z,12.40
2018-03-22T11:12:20.547Z,17.17
2018-03-22T11:14:46.812Z,14.70
2018-03-22T11:17:13.877Z,11.97
2018-03-22T11:19:40.875Z,12.20
2018-03-22T11:22:07.209Z,11.53
2018-03-22T11:24:33.487Z,12.43
2018-03-22T11:27:00.588Z,11.03
2018-03-22T11:29:27.134Z,11.60
2018-03-22T11:31:53.552Z,14.77
2018-03-22T11:34:19.736Z,11.70
2018-03-22T11:36:46.042Z,10.20
2018-03-22T11:39:13.093Z,10.03
2018-03-22T11:41:40.672Z,11.83
2018-03-22T11:44:07.416Z,13.33
2018-03-22T11:46:34.154Z,11.27
2018-03-22T11:49:00.453Z,9.37
2018-03-22T11:51:27.458Z,9.77
2018-03-22T11:53:53.765Z,10.93
2018-03-22T11:56:20.717Z,10.00
2018-03-22T11:58:47.172Z,9.47
2018-03-22T12:01:14.229Z,9.50
2018-03-22T12:03:40.606Z,10.00
2018-03-22T12:06:06.907Z,9.03
2018-03-22T12:08:33.873Z,10.23
2018-03-22T12:11:00.140Z,9.67
2018-03-22T12:13:26.410Z,9.37
2018-03-22T12:15:53.419Z,8.90
2018-03-22T12:18:19.847Z,10.30
2018-03-22T12:20:46.110Z,9.50
2018-03-22T12:23:12.513Z,10.83
2018-03-22T12:25:40.251Z,10.93
2018-03-22T12:28:06.559Z,11.90
2018-03-22T12:30:32.762Z,10.43
2018-03-22T12:32:59.020Z,10.67
2018-03-22T12:35:25.501Z,10.43
2018-03-22T12:37:52.614Z,10.30
2018-03-22T12:40:18.972Z,9.97
2018-03-22T12:42:45.301Z,10.10
2018-03-22T12:45:12.739Z,10.43
2018-03-22T12:47:38.981Z,9.70
2018-03-22T12:50:06.040Z,10.80
2018-03-22T12:52:33.062Z,9.10
2018-03-22T12:54:59.629Z,9.20
2018-03-22T12:57:26.681Z,9.33
2018-03-22T12:59:53.893Z,8.73
2018-03-22T13:02:20.678Z,9.07
2018-03-22T13:04:47.676Z,8.17
2018-03-22T13:07:14.084Z,8.40
2018-03-22T13:09:40.416Z,8.90
2018-03-22T13:12:06.765Z,9.13
2018-03-22T13:14:33.077Z,8.10
2018-03-22T13:16:59.569Z,8.00
2018-03-22T13:19:26.885Z,8.37
2018-03-22T13:21:53.238Z,8.90
2018-03-22T13:24:19.520Z,9.60
2018-03-22T13:26:46.684Z,8.13
2018-03-22T13:29:12.972Z,8.40
2018-03-22T13:31:39.211Z,8.27
2018-03-22T13:34:05.581Z,8.23
2018-03-22T13:36:32.044Z,7.97
2018-03-22T13:39:05.450Z,7.40
2018-03-22T13:41:31.927Z,7.23
2018-03-22T13:43:58.358Z,7.20
2018-03-22T13:46:24.561Z,7.47
2018-03-22T13:48:51.019Z,7.03
2018-03-22T13:51:17.577Z,7.90
2018-03-22T13:53:44.702Z,7.30
2018-03-22T13:56:11.031Z,6.20
2018-03-22T13:58:37.212Z,6.33
2018-03-22T14:01:03.668Z,6.40
2018-03-22T14:03:30.104Z,6.07
2018-03-22T14:05:56.450Z,6.43
2018-03-22T14:08:22.927Z,5.80
2018-03-22T14:10:49.974Z,5.97
2018-03-22T14:13:16.322Z,6.23
2018-03-22T14:15:42.633Z,5.30
2018-03-22T14:18:09.836Z,6.30
2018-03-22T14:20:36.279Z,5.40
2018-03-22T14:23:02.664Z,6.30
2018-03-22T14:25:28.930Z,6.50
2018-03-22T14:27:55.189Z,5.80
2018-03-22T14:30:22.161Z,5.17
2018-03-22T14:32:48.373Z,5.47
2018-03-22T14:35:15.406Z,6.50
2018-03-22T14:37:42.421Z,5.50
2018-03-22T14:40:08.682Z,5.70
2018-03-22T14:42:34.950Z,5.70
2018-03-22T14:45:01.144Z,6.17
2018-03-22T14:47:28.186Z,5.50
2018-03-22T14:49:55.238Z,6.07
2018-03-22T14:52:21.546Z,6.33
2018-03-22T14:54:48.714Z,6.57
2018-03-22T14:57:15.739Z,7.17
2018-03-22T14:59:42.077Z,6.30
2018-03-22T15:02:09.213Z,5.97
2018-03-22T15:04:35.537Z,6.77
2018-03-22T15:07:01.813Z,5.27
2018-03-22T15:09:28.231Z,5.00
2018-03-22T15:11:54.621Z,5.50
2018-03-22T15:14:21.689Z,4.57
2018-03-22T15:16:48.816Z,5.70
2018-03-22T15:19:15.127Z,5.70
2018-03-22T15:21:41.584Z,4.47
2018-03-22T15:24:08.708Z,4.93
2018-03-22T15:26:35.085Z,4.30
2018-03-22T15:29:02.057Z,4.83
2018-03-22T15:31:28.233Z,4.70
2018-03-22T15:33:54.438Z,5.73
2018-03-22T15:36:20.656Z,7.90
2018-03-22T15:38:48.456Z,8.13
2018-03-22T15:41:15.678Z,3.93
2018-03-22T15:43:41.930Z,3.90
2018-03-22T15:46:09.182Z,3.37
2018-03-22T15:48:42.171Z,3.70
2018-03-22T15:51:09.193Z,3.53
2018-03-22T15:53:35.453Z,3.90
2018-03-22T15:56:02.493Z,3.80
2018-03-22T15:58:29.570Z,3.27
2018-03-22T16:00:55.898Z,3.43
2018-03-22T16:03:22.232Z,3.30
2018-03-22T16:05:48.678Z,5.70
2018-03-22T16:08:14.989Z,7.40
2018-03-22T16:10:41.224Z,8.43
2018-03-22T16:13:07.427Z,4.20
2018-03-22T16:15:34.400Z,3.30
2018-03-22T16:18:00.757Z,2.90
2018-03-22T16:20:27.085Z,4.37
2018-03-22T16:22:53.269Z,6.00
2018-03-22T16:25:19.487Z,3.80
2018-03-22T16:27:45.722Z,4.30
2018-03-22T16:30:11.984Z,4.57
2018-03-22T16:32:38.336Z,3.10
2018-03-22T16:35:05.567Z,2.23
2018-03-22T16:37:32.014Z,3.97
2018-03-22T16:39:58.317Z,4.47
2018-03-22T16:42:24.659Z,2.67
2018-03-22T16:44:51.297Z,2.60
2018-03-22T16:47:17.842Z,2.90
2018-03-22T16:49:44.968Z,2.57
2018-03-22T16:52:11.261Z,2.57
2018-03-22T16:54:37.629Z,3.60
2018-03-22T16:57:04.619Z,3.30
2018-03-22T16:59:31.726Z,2.50
2018-03-22T17:01:58.573Z,2.30
2018-03-22T17:04:25.202Z,2.20
2018-03-22T17:06:51.462Z,2.17
2018-03-22T17:09:18.478Z,2.50
2018-03-22T17:11:44.990Z,4.20
2018-03-22T17:14:11.241Z,2.60
2018-03-22T17:16:39.002Z,5.13
2018-03-22T17:19:05.431Z,3.70
2018-03-22T17:21:31.803Z,3.60
2018-03-22T17:23:58.849Z,3.30
2018-03-22T17:26:25.875Z,2.43
2018-03-22T17:28:53.001Z,2.40
2018-03-22T17:31:19.286Z,2.00
2018-03-22T17:33:45.520Z,4.67
2018-03-22T17:36:11.721Z,7.60
2018-03-22T17:38:38.778Z,7.70
2018-03-22T17:41:05.190Z,4.07
2018-03-22T17:43:32.205Z,3.30
2018-03-22T17:45:58.468Z,2.90
2018-03-22T17:48:25.693Z,2.80
2018-03-22T17:50:53.603Z,3.10
2018-03-22T17:53:19.871Z,3.10
2018-03-22T17:55:46.262Z,2.90
2018-03-22T17:58:12.569Z,2.77
2018-03-22T18:00:39.474Z,2.50
2018-03-22T18:03:05.811Z,3.10
2018-03-22T18:05:33.547Z,4.00
2018-03-22T18:07:59.799Z,2.80
2018-03-22T18:10:26.098Z,3.30
2018-03-22T18:12:52.509Z,3.47
2018-03-22T18:15:18.802Z,3.40
2018-03-22T18:17:45.887Z,3.50
2018-03-22T18:20:12.201Z,3.87
2018-03-22T18:22:39.130Z,3.90
2018-03-22T18:25:06.207Z,2.40
2018-03-22T18:27:32.344Z,2.87
2018-03-22T18:29:58.626Z,4.50
2018-03-22T18:32:25.613Z,3.00
2018-03-22T18:34:52.836Z,3.83
2018-03-22T18:37:19.127Z,5.20
2018-03-22T18:39:46.070Z,4.30
2018-03-22T18:42:12.731Z,3.13
2018-03-22T18:44:39.754Z,3.83
2018-03-22T18:47:06.077Z,5.50
2018-03-22T18:49:32.420Z,15.43
2018-03-22T18:51:58.895Z,4.40
2018-03-22T18:54:25.209Z,2.57
2018-03-22T18:56:52.807Z,2.47
2018-03-22T18:59:19.098Z,2.20
2018-03-22T19:01:46.180Z,1.93
2018-03-22T19:04:12.941Z,2.40
2018-03-22T19:06:39.269Z,2.30
2018-03-22T19:09:05.603Z,2.33
2018-03-22T19:11:33.219Z,1.87
2018-03-22T19:13:59.594Z,2.00
2018-03-22T19:16:25.788Z,2.33
2018-03-22T19:18:52.087Z,2.50
2018-03-22T19:21:19.000Z,3.20
2018-03-22T19:23:45.923Z,3.60
2018-03-22T19:26:12.192Z,3.67
2018-03-22T19:28:39.122Z,4.30
2018-03-22T19:31:06.188Z,4.60
2018-03-22T19:33:32.413Z,6.00
2018-03-22T19:35:59.392Z,7.77
2018-03-22T19:38:25.612Z,6.07
2018-03-22T19:40:51.852Z,5.33
2018-03-22T19:43:18.067Z,4.90
2018-03-22T19:45:44.414Z,3.73
2018-03-22T19:48:10.664Z,2.27
2018-03-22T19:50:38.349Z,2.80
2018-03-22T19:53:05.360Z,2.60
2018-03-22T19:55:31.802Z,3.70
2018-03-22T19:57:58.062Z,3.80
2018-03-22T20:00:25.067Z,4.93
2018-03-22T20:02:51.378Z,4.30
2018-03-22T20:05:17.684Z,2.63
2018-03-22T20:07:43.963Z,2.83
2018-03-22T20:10:10.288Z,3.53
2018-03-22T20:12:37.289Z,3.47
2018-03-22T20:15:03.594Z,3.23
2018-03-22T20:17:30.541Z,3.23
2018-03-22T20:19:56.802Z,4.47
2018-03-22T20:22:23.128Z,4.40
2018-03-22T20:24:49.495Z,6.60
2018-03-22T20:27:17.233Z,4.57
2018-03-22T20:29:43.500Z,4.40
2018-03-22T20:32:10.492Z,4.47
2018-03-22T20:34:36.818Z,5.33
2018-03-22T20:37:03.228Z,4.40
2018-03-22T20:39:29.740Z,5.50
2018-03-22T20:41:56.729Z,5.43
2018-03-22T20:44:24.050Z,9.83
2018-03-22T20:46:50.300Z,6.10
2018-03-22T20:49:16.599Z,8.37
2018-03-22T20:51:45.350Z,10.13
2018-03-22T20:54:11.656Z,7.43
2018-03-22T20:56:37.934Z,7.77
2018-03-22T20:59:05.198Z,6.30
2018-03-22T21:01:31.570Z,5.60
2018-03-22T21:03:59.389Z,5.50
2018-03-22T21:06:26.331Z,6.00
2018-03-22T21:08:53.636Z,6.60
2018-03-22T21:11:20.918Z,8.00
2018-03-22T21:13:48.039Z,5.73
2018-03-22T21:16:14.376Z,7.87
2018-03-22T21:18:40.622Z,8.50
2018-03-22T21:21:07.650Z,7.80
2018-03-22T21:23:33.944Z,9.10
2018-03-22T21:26:00.405Z,8.77
2018-03-22T21:28:26.682Z,9.13
2018-03-22T21:30:52.923Z,9.70
2018-03-22T21:33:19.224Z,9.00
2018-03-22T21:35:46.317Z,9.10
2018-03-22T21:38:13.075Z,9.30
2018-03-22T21:40:39.260Z,10.07
2018-03-22T21:43:05.472Z,9.90
2018-03-22T21:45:32.464Z,10.07
2018-03-22T21:47:58.753Z,7.43
2018-03-22T21:50:25.011Z,8.90
2018-03-22T21:52:51.296Z,6.70
2018-03-22T21:55:18.349Z,7.70
2018-03-22T21:57:45.450Z,8.10
2018-03-22T22:00:11.727Z,8.73
2018-03-22T22:02:38.036Z,7.63
2018-03-22T22:05:04.985Z,7.50
2018-03-22T22:07:31.994Z,7.10
2018-03-22T22:09:58.292Z,8.43
2018-03-22T22:12:24.520Z,8.10
2018-03-22T22:14:50.727Z,8.47
2018-03-22T22:17:17.000Z,9.73
2018-03-22T22:19:43.385Z,23.03
2018-03-22T22:22:10.276Z,28.80
2018-03-22T22:24:36.444Z,12.30
2018-03-22T22:27:03.484Z,23.67
2018-03-22T22:29:30.422Z,16.53
2018-03-22T22:31:57.428Z,26.27
2018-03-22T22:34:23.715Z,30.50
2018-03-22T22:36:49.938Z,33.50
2018-03-22T22:39:16.102Z,24.93
2018-03-22T22:41:42.338Z,28.50
2018-03-22T22:44:08.538Z,29.17
2018-03-22T22:46:35.419Z,23.93
2018-03-22T22:49:01.904Z,20.50
2018-03-22T22:51:28.084Z,18.13
2018-03-22T22:53:55.788Z,20.13
2018-03-22T22:56:22.188Z,25.37
2018-03-22T22:58:49.188Z,23.37
2018-03-22T23:01:15.473Z,19.53
2018-03-22T23:03:42.590Z,19.17
2018-03-22T23:06:09.630Z,16.10
2018-03-22T23:08:35.927Z,11.13
2018-03-22T23:11:02.403Z,10.93
2018-03-22T23:13:30.223Z,11.40
2018-03-22T23:15:56.604Z,11.90
2018-03-22T23:18:24.400Z,9.87
2018-03-22T23:20:50.714Z,9.30
2018-03-22T23:23:17.658Z,9.93
2018-03-22T23:25:44.784Z,9.20
2018-03-22T23:28:11.046Z,13.00
2018-03-22T23:30:37.250Z,9.20
2018-03-22T23:33:04.295Z,12.50
2018-03-22T23:35:30.535Z,10.90
2018-03-22T23:37:56.859Z,10.50
2018-03-22T23:40:23.761Z,10.07
2018-03-22T23:42:49.936Z,11.23
2018-03-22T23:45:16.926Z,9.93
2018-03-22T23:47:43.221Z,8.70
2018-03-22T23:50:09.426Z,9.20
2018-03-22T23:52:36.364Z,9.20
2018-03-22T23:55:03.374Z,8.10
2018-03-22T23:57:29.640Z,9.93
2018-03-22T23:59:56.650Z,11.93
